Richland, Nebraska
Current Conditions -  °F | °C
As of 2:55 AM on Wednesday 22 Oct 2014 (Local Time) from KOLU Reporting Station
Clear Clear  
Wind Chill: 57°   Ceiling: Unl
Heat Index: 57°   Visibility: 10mi
Dew Point: 41°   Wind: 10mph
Humidity: 55%   Direction: 150°SSE
Pressure: 30.04"   Gusts: NA
Location:  41.4657°N, 97.2904°W
Report Text: KOLU 220755Z AUTO 15009KT 10SM CLR 14/05 A3004 RMK AO1
Loading
Personal Weather Stations






























Interactive Weather Map
Tropical Storm Tracking
New forecast layout! Learn more

10-Day Weather Forecast

Advertisements
Track Severe Weather on mobile